sensor_id;sensor_type;location;lat;lon;timestamp;temperature;humidity
3037;DHT22;1528;52.550;13.408;2023-03-05T00:01:25;5.30;33.10
3037;DHT22;1528;52.550;13.408;2023-03-05T00:04:13;5.40;33.20
3037;DHT22;1528;52.550;13.408;2023-03-05T00:06:58;5.30;34.30
3037;DHT22;1528;52.550;13.408;2023-03-05T00:09:44;5.40;35.20
3037;DHT22;1528;52.550;13.408;2023-03-05T00:12:31;5.10;37.40
3037;DHT22;1528;52.550;13.408;2023-03-05T00:15:17;5.20;39.10
3037;DHT22;1528;52.550;13.408;2023-03-05T00:18:03;5.10;39.90
3037;DHT22;1528;52.550;13.408;2023-03-05T00:20:48;5.00;41.30
3037;DHT22;1528;52.550;13.408;2023-03-05T00:23:34;4.80;42.90
3037;DHT22;1528;52.550;13.408;2023-03-05T00:26:21;4.60;44.50
3037;DHT22;1528;52.550;13.408;2023-03-05T00:29:17;4.50;45.50
3037;DHT22;1528;52.550;13.408;2023-03-05T00:32:05;4.40;46.50
3037;DHT22;1528;52.550;13.408;2023-03-05T00:34:50;4.40;47.60
3037;DHT22;1528;52.550;13.408;2023-03-05T00:37:36;4.20;50.30
3037;DHT22;1528;52.550;13.408;2023-03-05T00:40:22;4.30;51.80
3037;DHT22;1528;52.550;13.408;2023-03-05T00:43:07;4.00;51.00
3037;DHT22;1528;52.550;13.408;2023-03-05T00:45:55;4.20;49.10
3037;DHT22;1528;52.550;13.408;2023-03-05T00:48:40;4.20;48.40
3037;DHT22;1528;52.550;13.408;2023-03-05T00:51:26;4.20;47.60
3037;DHT22;1528;52.550;13.408;2023-03-05T00:54:11;4.10;47.90
3037;DHT22;1528;52.550;13.408;2023-03-05T00:56:57;4.20;46.90
3037;DHT22;1528;52.550;13.408;2023-03-05T00:59:43;4.20;46.40
3037;DHT22;1528;52.550;13.408;2023-03-05T01:02:30;4.20;46.00
3037;DHT22;1528;52.550;13.408;2023-03-05T01:05:15;4.30;45.00
3037;DHT22;1528;52.550;13.408;2023-03-05T01:08:01;4.20;44.00
3037;DHT22;1528;52.550;13.408;2023-03-05T01:10:47;4.30;43.20
3037;DHT22;1528;52.550;13.408;2023-03-05T01:13:32;4.30;42.80
3037;DHT22;1528;52.550;13.408;2023-03-05T01:16:18;4.30;41.60
3037;DHT22;1528;52.550;13.408;2023-03-05T01:19:05;4.40;41.80
3037;DHT22;1528;52.550;13.408;2023-03-05T01:21:51;4.20;41.30
3037;DHT22;1528;52.550;13.408;2023-03-05T01:24:38;4.30;39.60
3037;DHT22;1528;52.550;13.408;2023-03-05T01:27:23;4.10;39.40
3037;DHT22;1528;52.550;13.408;2023-03-05T01:30:11;4.30;38.10
3037;DHT22;1528;52.550;13.408;2023-03-05T01:32:58;4.30;37.50
3037;DHT22;1528;52.550;13.408;2023-03-05T01:35:46;4.30;36.90
3037;DHT22;1528;52.550;13.408;2023-03-05T01:38:32;4.10;36.20
3037;DHT22;1528;52.550;13.408;2023-03-05T01:41:19;4.30;35.90
3037;DHT22;1528;52.550;13.408;2023-03-05T01:44:05;4.30;34.70
3037;DHT22;1528;52.550;13.408;2023-03-05T01:46:50;4.20;34.70
3037;DHT22;1528;52.550;13.408;2023-03-05T01:49:37;4.30;34.30
3037;DHT22;1528;52.550;13.408;2023-03-05T01:52:26;4.30;33.30
3037;DHT22;1528;52.550;13.408;2023-03-05T01:55:15;4.10;32.70
3037;DHT22;1528;52.550;13.408;2023-03-05T01:58:03;4.20;32.20
3037;DHT22;1528;52.550;13.408;2023-03-05T02:00:52;4.20;31.50
3037;DHT22;1528;52.550;13.408;2023-03-05T02:03:40;4.10;30.50
3037;DHT22;1528;52.550;13.408;2023-03-05T02:06:25;4.10;29.90
3037;DHT22;1528;52.550;13.408;2023-03-05T02:09:12;4.00;30.10
3037;DHT22;1528;52.550;13.408;2023-03-05T02:11:58;3.90;30.00
3037;DHT22;1528;52.550;13.408;2023-03-05T02:14:46;3.90;30.10
3037;DHT22;1528;52.550;13.408;2023-03-05T02:17:32;4.00;29.80
3037;DHT22;1528;52.550;13.408;2023-03-05T02:20:20;4.10;29.50
3037;DHT22;1528;52.550;13.408;2023-03-05T02:23:07;4.00;29.00
3037;DHT22;1528;52.550;13.408;2023-03-05T02:25:53;3.90;28.40
3037;DHT22;1528;52.550;13.408;2023-03-05T02:28:41;3.90;28.10
3037;DHT22;1528;52.550;13.408;2023-03-05T02:31:27;3.90;28.40
3037;DHT22;1528;52.550;13.408;2023-03-05T02:34:14;3.90;28.10
3037;DHT22;1528;52.550;13.408;2023-03-05T02:36:59;3.90;28.10
3037;DHT22;1528;52.550;13.408;2023-03-05T02:39:48;3.90;27.90
3037;DHT22;1528;52.550;13.408;2023-03-05T02:42:34;3.90;27.70
3037;DHT22;1528;52.550;13.408;2023-03-05T02:45:20;4.10;27.90
3037;DHT22;1528;52.550;13.408;2023-03-05T02:48:06;4.20;27.60
3037;DHT22;1528;52.550;13.408;2023-03-05T02:50:52;3.90;27.50
3037;DHT22;1528;52.550;13.408;2023-03-05T02:53:38;3.90;27.50
3037;DHT22;1528;52.550;13.408;2023-03-05T02:56:25;3.90;27.60
3037;DHT22;1528;52.550;13.408;2023-03-05T02:59:10;3.90;27.60
3037;DHT22;1528;52.550;13.408;2023-03-05T03:01:56;3.90;28.70
3037;DHT22;1528;52.550;13.408;2023-03-05T03:08:23;3.70;28.00
3037;DHT22;1528;52.550;13.408;2023-03-05T03:11:10;3.70;28.00
3037;DHT22;1528;52.550;13.408;2023-03-05T03:13:58;3.80;28.00
3037;DHT22;1528;52.550;13.408;2023-03-05T03:16:44;3.80;28.00
3037;DHT22;1528;52.550;13.408;2023-03-05T03:19:30;3.80;27.80
3037;DHT22;1528;52.550;13.408;2023-03-05T03:22:15;3.80;28.10
3037;DHT22;1528;52.550;13.408;2023-03-05T03:25:01;3.80;28.70
3037;DHT22;1528;52.550;13.408;2023-03-05T03:27:47;3.70;28.20
3037;DHT22;1528;52.550;13.408;2023-03-05T03:30:34;3.80;28.30
3037;DHT22;1528;52.550;13.408;2023-03-05T03:33:19;3.90;28.00
3037;DHT22;1528;52.550;13.408;2023-03-05T03:36:06;3.80;28.40
3037;DHT22;1528;52.550;13.408;2023-03-05T03:38:51;3.80;28.20
3037;DHT22;1528;52.550;13.408;2023-03-05T03:41:41;3.60;28.30
3037;DHT22;1528;52.550;13.408;2023-03-05T03:44:26;3.70;27.90
3037;DHT22;1528;52.550;13.408;2023-03-05T03:47:13;3.70;27.80
3037;DHT22;1528;52.550;13.408;2023-03-05T03:49:59;3.70;28.10
3037;DHT22;1528;52.550;13.408;2023-03-05T03:52:45;3.70;28.10
3037;DHT22;1528;52.550;13.408;2023-03-05T03:55:30;3.80;28.30
3037;DHT22;1528;52.550;13.408;2023-03-05T03:58:16;3.80;29.00
3037;DHT22;1528;52.550;13.408;2023-03-05T04:01:02;3.70;28.80
3037;DHT22;1528;52.550;13.408;2023-03-05T04:03:49;3.70;29.10
3037;DHT22;1528;52.550;13.408;2023-03-05T04:06:34;3.60;29.40
3037;DHT22;1528;52.550;13.408;2023-03-05T04:09:20;3.70;29.40
3037;DHT22;1528;52.550;13.408;2023-03-05T04:12:06;3.60;29.60
3037;DHT22;1528;52.550;13.408;2023-03-05T04:14:51;3.60;29.90
3037;DHT22;1528;52.550;13.408;2023-03-05T04:17:37;3.50;30.00
3037;DHT22;1528;52.550;13.408;2023-03-05T04:20:24;3.50;30.20
3037;DHT22;1528;52.550;13.408;2023-03-05T04:23:10;3.50;30.50
3037;DHT22;1528;52.550;13.408;2023-03-05T04:25:55;3.40;31.00
3037;DHT22;1528;52.550;13.408;2023-03-05T04:28:41;3.40;31.30
3037;DHT22;1528;52.550;13.408;2023-03-05T04:31:27;3.20;32.10
3037;DHT22;1528;52.550;13.408;2023-03-05T04:34:12;3.30;32.00
3037;DHT22;1528;52.550;13.408;2023-03-05T04:36:59;3.30;32.00
3037;DHT22;1528;52.550;13.408;2023-03-05T04:39:45;3.30;32.20
3037;DHT22;1528;52.550;13.408;2023-03-05T04:42:31;3.40;32.20
3037;DHT22;1528;52.550;13.408;2023-03-05T04:45:16;3.30;32.30
3037;DHT22;1528;52.550;13.408;2023-03-05T04:48:02;3.40;32.50
3037;DHT22;1528;52.550;13.408;2023-03-05T04:50:47;3.40;32.60
3037;DHT22;1528;52.550;13.408;2023-03-05T04:53:34;3.30;32.70
3037;DHT22;1528;52.550;13.408;2023-03-05T04:56:20;3.30;32.90
3037;DHT22;1528;52.550;13.408;2023-03-05T04:59:05;3.30;32.90
3037;DHT22;1528;52.550;13.408;2023-03-05T05:01:51;3.30;33.20
3037;DHT22;1528;52.550;13.408;2023-03-05T05:04:37;3.30;33.20
3037;DHT22;1528;52.550;13.408;2023-03-05T05:07:23;3.30;34.00
3037;DHT22;1528;52.550;13.408;2023-03-05T05:10:11;3.30;33.50
3037;DHT22;1528;52.550;13.408;2023-03-05T05:12:57;3.30;33.70
3037;DHT22;1528;52.550;13.408;2023-03-05T05:15:43;3.20;34.10
3037;DHT22;1528;52.550;13.408;2023-03-05T05:18:28;3.30;33.60
3037;DHT22;1528;52.550;13.408;2023-03-05T05:21:14;3.40;34.30
3037;DHT22;1528;52.550;13.408;2023-03-05T05:24:01;3.10;34.50
3037;DHT22;1528;52.550;13.408;2023-03-05T05:26:48;3.10;34.60
3037;DHT22;1528;52.550;13.408;2023-03-05T05:29:34;3.20;34.40
3037;DHT22;1528;52.550;13.408;2023-03-05T05:32:21;3.20;35.10
3037;DHT22;1528;52.550;13.408;2023-03-05T05:35:09;3.10;34.60
3037;DHT22;1528;52.550;13.408;2023-03-05T05:37:54;3.00;34.90
3037;DHT22;1528;52.550;13.408;2023-03-05T05:40:40;3.00;35.20
3037;DHT22;1528;52.550;13.408;2023-03-05T05:43:27;3.30;35.10
3037;DHT22;1528;52.550;13.408;2023-03-05T05:46:15;3.00;35.30
3037;DHT22;1528;52.550;13.408;2023-03-05T05:49:01;3.00;35.20
3037;DHT22;1528;52.550;13.408;2023-03-05T05:51:46;3.00;35.60
3037;DHT22;1528;52.550;13.408;2023-03-05T05:54:32;3.00;35.50
3037;DHT22;1528;52.550;13.408;2023-03-05T05:57:18;3.10;35.50
3037;DHT22;1528;52.550;13.408;2023-03-05T06:00:08;3.10;35.70
3037;DHT22;1528;52.550;13.408;2023-03-05T06:02:54;3.10;35.90
3037;DHT22;1528;52.550;13.408;2023-03-05T06:05:40;3.20;35.60
3037;DHT22;1528;52.550;13.408;2023-03-05T06:08:26;3.20;35.50
3037;DHT22;1528;52.550;13.408;2023-03-05T06:11:11;3.20;35.80
3037;DHT22;1528;52.550;13.408;2023-03-05T06:13:57;3.20;36.10
3037;DHT22;1528;52.550;13.408;2023-03-05T06:16:44;3.20;35.70
3037;DHT22;1528;52.550;13.408;2023-03-05T06:19:30;3.40;35.20
3037;DHT22;1528;52.550;13.408;2023-03-05T06:22:15;3.40;35.20
3037;DHT22;1528;52.550;13.408;2023-03-05T06:25:01;3.40;35.20
3037;DHT22;1528;52.550;13.408;2023-03-05T06:27:47;3.40;36.20
3037;DHT22;1528;52.550;13.408;2023-03-05T06:30:32;3.60;35.40
3037;DHT22;1528;52.550;13.408;2023-03-05T06:33:19;3.30;35.70
3037;DHT22;1528;52.550;13.408;2023-03-05T06:36:07;3.40;35.60
3037;DHT22;1528;52.550;13.408;2023-03-05T06:38:53;3.40;35.60
3037;DHT22;1528;52.550;13.408;2023-03-05T06:41:39;3.50;35.60
3037;DHT22;1528;52.550;13.408;2023-03-05T06:44:24;3.60;35.40
3037;DHT22;1528;52.550;13.408;2023-03-05T06:47:10;3.70;35.10
3037;DHT22;1528;52.550;13.408;2023-03-05T06:49:58;3.80;34.90
3037;DHT22;1528;52.550;13.408;2023-03-05T06:52:44;3.70;35.50
3037;DHT22;1528;52.550;13.408;2023-03-05T06:55:35;3.70;35.40
3037;DHT22;1528;52.550;13.408;2023-03-05T06:58:22;3.50;35.30
3037;DHT22;1528;52.550;13.408;2023-03-05T07:01:08;3.70;35.10
3037;DHT22;1528;52.550;13.408;2023-03-05T07:03:54;3.80;34.30
3037;DHT22;1528;52.550;13.408;2023-03-05T07:06:43;3.80;34.30
3037;DHT22;1528;52.550;13.408;2023-03-05T07:09:29;3.90;34.20
3037;DHT22;1528;52.550;13.408;2023-03-05T07:12:15;3.80;33.50
3037;DHT22;1528;52.550;13.408;2023-03-05T07:15:00;3.90;33.50
3037;DHT22;1528;52.550;13.408;2023-03-05T07:17:46;3.90;33.30
3037;DHT22;1528;52.550;13.408;2023-03-05T07:20:33;3.80;32.90
3037;DHT22;1528;52.550;13.408;2023-03-05T07:23:19;3.90;33.20
3037;DHT22;1528;52.550;13.408;2023-03-05T07:26:06;3.90;32.90
3037;DHT22;1528;52.550;13.408;2023-03-05T07:28:52;4.10;32.40
3037;DHT22;1528;52.550;13.408;2023-03-05T07:31:37;4.00;32.40
3037;DHT22;1528;52.550;13.408;2023-03-05T07:34:23;3.90;33.00
3037;DHT22;1528;52.550;13.408;2023-03-05T07:37:09;4.10;32.60
3037;DHT22;1528;52.550;13.408;2023-03-05T07:39:56;4.20;31.80
3037;DHT22;1528;52.550;13.408;2023-03-05T07:42:41;4.10;32.10
3037;DHT22;1528;52.550;13.408;2023-03-05T07:45:27;4.10;31.60
3037;DHT22;1528;52.550;13.408;2023-03-05T07:48:17;4.20;32.00
3037;DHT22;1528;52.550;13.408;2023-03-05T07:51:06;4.40;31.50
3037;DHT22;1528;52.550;13.408;2023-03-05T07:53:53;4.30;31.40
3037;DHT22;1528;52.550;13.408;2023-03-05T07:56:40;4.40;31.10
3037;DHT22;1528;52.550;13.408;2023-03-05T07:59:26;4.50;31.20
3037;DHT22;1528;52.550;13.408;2023-03-05T08:02:12;4.60;30.40
3037;DHT22;1528;52.550;13.408;2023-03-05T08:04:57;4.30;31.40
3037;DHT22;1528;52.550;13.408;2023-03-05T08:07:46;4.40;30.90
3037;DHT22;1528;52.550;13.408;2023-03-05T08:10:32;4.50;30.60
3037;DHT22;1528;52.550;13.408;2023-03-05T08:13:19;4.50;30.30
3037;DHT22;1528;52.550;13.408;2023-03-05T08:16:05;4.30;30.40
3037;DHT22;1528;52.550;13.408;2023-03-05T08:18:55;4.50;30.10
3037;DHT22;1528;52.550;13.408;2023-03-05T08:21:41;4.50;30.30
3037;DHT22;1528;52.550;13.408;2023-03-05T08:24:27;4.70;29.30
3037;DHT22;1528;52.550;13.408;2023-03-05T08:27:13;4.90;28.90
3037;DHT22;1528;52.550;13.408;2023-03-05T08:30:01;4.70;29.50
3037;DHT22;1528;52.550;13.408;2023-03-05T08:32:48;4.90;29.20
3037;DHT22;1528;52.550;13.408;2023-03-05T08:35:33;5.00;28.00
3037;DHT22;1528;52.550;13.408;2023-03-05T08:38:19;4.90;28.00
3037;DHT22;1528;52.550;13.408;2023-03-05T08:41:05;4.90;28.10
3037;DHT22;1528;52.550;13.408;2023-03-05T08:43:50;4.90;26.30
3037;DHT22;1528;52.550;13.408;2023-03-05T08:46:41;4.90;27.50
3037;DHT22;1528;52.550;13.408;2023-03-05T08:49:27;4.70;27.30
3037;DHT22;1528;52.550;13.408;2023-03-05T08:52:12;4.60;27.10
3037;DHT22;1528;52.550;13.408;2023-03-05T08:54:58;4.90;27.20
3037;DHT22;1528;52.550;13.408;2023-03-05T08:57:43;5.00;26.50
3037;DHT22;1528;52.550;13.408;2023-03-05T09:00:29;5.20;25.90
3037;DHT22;1528;52.550;13.408;2023-03-05T09:03:17;5.20;25.60
3037;DHT22;1528;52.550;13.408;2023-03-05T09:06:05;5.40;25.10
3037;DHT22;1528;52.550;13.408;2023-03-05T09:08:51;5.40;24.30
3037;DHT22;1528;52.550;13.408;2023-03-05T09:11:36;5.20;24.60
3037;DHT22;1528;52.550;13.408;2023-03-05T09:14:22;5.20;25.10
3037;DHT22;1528;52.550;13.408;2023-03-05T09:17:08;5.20;24.50
3037;DHT22;1528;52.550;13.408;2023-03-05T09:19:55;5.50;23.50
3037;DHT22;1528;52.550;13.408;2023-03-05T09:22:40;5.80;23.00
3037;DHT22;1528;52.550;13.408;2023-03-05T09:25:26;5.70;23.00
3037;DHT22;1528;52.550;13.408;2023-03-05T09:28:12;5.60;22.20
3037;DHT22;1528;52.550;13.408;2023-03-05T09:31:01;5.60;21.50
3037;DHT22;1528;52.550;13.408;2023-03-05T09:33:47;5.30;22.20
3037;DHT22;1528;52.550;13.408;2023-03-05T09:36:34;5.50;22.30
3037;DHT22;1528;52.550;13.408;2023-03-05T09:39:20;5.40;22.70
3037;DHT22;1528;52.550;13.408;2023-03-05T09:42:28;5.40;23.30
3037;DHT22;1528;52.550;13.408;2023-03-05T09:45:20;5.30;23.60
3037;DHT22;1528;52.550;13.408;2023-03-05T09:48:14;5.20;23.90
3037;DHT22;1528;52.550;13.408;2023-03-05T09:51:03;5.30;24.30
3037;DHT22;1528;52.550;13.408;2023-03-05T09:53:56;5.30;24.70
3037;DHT22;1528;52.550;13.408;2023-03-05T09:56:45;5.40;24.70
3037;DHT22;1528;52.550;13.408;2023-03-05T09:59:34;5.60;23.60
3037;DHT22;1528;52.550;13.408;2023-03-05T10:02:30;5.40;23.40
3037;DHT22;1528;52.550;13.408;2023-03-05T10:05:20;5.70;22.70
3037;DHT22;1528;52.550;13.408;2023-03-05T10:08:08;5.60;22.10
3037;DHT22;1528;52.550;13.408;2023-03-05T10:10:57;5.70;22.20
3037;DHT22;1528;52.550;13.408;2023-03-05T10:13:44;5.70;22.00
3037;DHT22;1528;52.550;13.408;2023-03-05T10:16:44;5.60;22.30
3037;DHT22;1528;52.550;13.408;2023-03-05T10:19:44;5.60;22.10
3037;DHT22;1528;52.550;13.408;2023-03-05T10:22:35;5.60;22.00
3037;DHT22;1528;52.550;13.408;2023-03-05T10:25:28;5.80;22.00
3037;DHT22;1528;52.550;13.408;2023-03-05T10:28:21;5.90;21.00
3037;DHT22;1528;52.550;13.408;2023-03-05T10:31:39;5.90;21.30
3037;DHT22;1528;52.550;13.408;2023-03-05T10:34:54;6.00;21.40
3037;DHT22;1528;52.550;13.408;2023-03-05T10:40:54;6.00;21.00
3037;DHT22;1528;52.550;13.408;2023-03-05T10:43:46;5.80;21.20
3037;DHT22;1528;52.550;13.408;2023-03-05T10:46:37;5.70;21.80
3037;DHT22;1528;52.550;13.408;2023-03-05T10:49:26;5.60;24.50
3037;DHT22;1528;52.550;13.408;2023-03-05T10:52:19;5.60;25.00
3037;DHT22;1528;52.550;13.408;2023-03-05T10:55:13;5.80;25.40
3037;DHT22;1528;52.550;13.408;2023-03-05T10:58:00;5.90;24.60
3037;DHT22;1528;52.550;13.408;2023-03-05T11:01:05;6.00;23.40
3037;DHT22;1528;52.550;13.408;2023-03-05T11:04:06;5.90;22.90
3037;DHT22;1528;52.550;13.408;2023-03-05T11:06:53;5.90;22.90
3037;DHT22;1528;52.550;13.408;2023-03-05T11:09:39;5.70;23.10
3037;DHT22;1528;52.550;13.408;2023-03-05T11:12:26;5.80;23.40
3037;DHT22;1528;52.550;13.408;2023-03-05T11:15:25;5.80;23.60
3037;DHT22;1528;52.550;13.408;2023-03-05T11:18:20;5.80;24.20
3037;DHT22;1528;52.550;13.408;2023-03-05T11:21:10;6.10;24.00
3037;DHT22;1528;52.550;13.408;2023-03-05T11:24:04;6.10;23.40
3037;DHT22;1528;52.550;13.408;2023-03-05T11:26:52;6.10;23.60
3037;DHT22;1528;52.550;13.408;2023-03-05T11:29:46;5.90;24.20
3037;DHT22;1528;52.550;13.408;2023-03-05T11:32:32;6.00;24.20
3037;DHT22;1528;52.550;13.408;2023-03-05T11:35:29;6.00;24.40
3037;DHT22;1528;52.550;13.408;2023-03-05T11:38:17;6.00;24.70
3037;DHT22;1528;52.550;13.408;2023-03-05T11:41:03;6.20;24.90
3037;DHT22;1528;52.550;13.408;2023-03-05T11:43:51;6.40;26.00
3037;DHT22;1528;52.550;13.408;2023-03-05T11:46:41;6.60;25.20
3037;DHT22;1528;52.550;13.408;2023-03-05T11:49:29;6.80;25.40
3037;DHT22;1528;52.550;13.408;2023-03-05T11:52:20;7.10;25.90
3037;DHT22;1528;52.550;13.408;2023-03-05T11:55:12;7.10;25.50
3037;DHT22;1528;52.550;13.408;2023-03-05T11:58:09;7.00;25.10
3037;DHT22;1528;52.550;13.408;2023-03-05T12:00:57;6.70;26.80
3037;DHT22;1528;52.550;13.408;2023-03-05T12:03:44;7.00;25.40
3037;DHT22;1528;52.550;13.408;2023-03-05T12:06:33;6.80;24.30
3037;DHT22;1528;52.550;13.408;2023-03-05T12:09:24;6.70;25.00
3037;DHT22;1528;52.550;13.408;2023-03-05T12:12:23;7.00;23.20
3037;DHT22;1528;52.550;13.408;2023-03-05T12:15:29;7.30;22.70
3037;DHT22;1528;52.550;13.408;2023-03-05T12:18:27;7.30;21.40
3037;DHT22;1528;52.550;13.408;2023-03-05T12:21:20;7.50;21.20
3037;DHT22;1528;52.550;13.408;2023-03-05T12:24:33;7.70;21.50
3037;DHT22;1528;52.550;13.408;2023-03-05T12:27:33;7.70;21.00
3037;DHT22;1528;52.550;13.408;2023-03-05T12:30:55;7.80;20.20
3037;DHT22;1528;52.550;13.408;2023-03-05T12:33:42;7.50;20.80
3037;DHT22;1528;52.550;13.408;2023-03-05T12:36:36;7.50;20.10
3037;DHT22;1528;52.550;13.408;2023-03-05T12:39:49;7.60;20.30
3037;DHT22;1528;52.550;13.408;2023-03-05T12:45:46;7.80;18.30
3037;DHT22;1528;52.550;13.408;2023-03-05T12:48:43;7.60;18.60
3037;DHT22;1528;52.550;13.408;2023-03-05T12:51:34;7.40;20.20
3037;DHT22;1528;52.550;13.408;2023-03-05T12:54:32;7.20;21.30
3037;DHT22;1528;52.550;13.408;2023-03-05T12:57:22;7.30;20.90
3037;DHT22;1528;52.550;13.408;2023-03-05T13:00:15;7.70;20.60
3037;DHT22;1528;52.550;13.408;2023-03-05T13:03:10;7.60;20.20
3037;DHT22;1528;52.550;13.408;2023-03-05T13:05:58;8.00;19.00
3037;DHT22;1528;52.550;13.408;2023-03-05T13:08:55;8.10;19.50
3037;DHT22;1528;52.550;13.408;2023-03-05T13:11:42;8.10;19.50
3037;DHT22;1528;52.550;13.408;2023-03-05T13:14:34;7.90;18.60
3037;DHT22;1528;52.550;13.408;2023-03-05T13:17:33;7.90;17.40
3037;DHT22;1528;52.550;13.408;2023-03-05T13:20:25;7.70;17.20
3037;DHT22;1528;52.550;13.408;2023-03-05T13:23:17;7.60;17.50
3037;DHT22;1528;52.550;13.408;2023-03-05T13:26:11;7.50;15.90
3037;DHT22;1528;52.550;13.408;2023-03-05T13:29:06;7.70;15.50
3037;DHT22;1528;52.550;13.408;2023-03-05T13:31:56;7.80;15.20
3037;DHT22;1528;52.550;13.408;2023-03-05T13:34:44;7.80;15.00
3037;DHT22;1528;52.550;13.408;2023-03-05T13:37:32;7.70;15.70
3037;DHT22;1528;52.550;13.408;2023-03-05T13:40:21;7.70;15.20
3037;DHT22;1528;52.550;13.408;2023-03-05T13:43:09;7.60;14.90
3037;DHT22;1528;52.550;13.408;2023-03-05T13:45:55;7.50;15.90
3037;DHT22;1528;52.550;13.408;2023-03-05T13:48:42;7.40;16.90
3037;DHT22;1528;52.550;13.408;2023-03-05T13:51:42;7.30;17.60
3037;DHT22;1528;52.550;13.408;2023-03-05T13:54:28;7.10;18.10
3037;DHT22;1528;52.550;13.408;2023-03-05T13:57:34;6.90;17.20
3037;DHT22;1528;52.550;13.408;2023-03-05T14:00:31;6.70;18.30
3037;DHT22;1528;52.550;13.408;2023-03-05T14:03:21;6.80;19.20
3037;DHT22;1528;52.550;13.408;2023-03-05T14:06:09;6.70;19.50
3037;DHT22;1528;52.550;13.408;2023-03-05T14:09:02;6.70;18.80
3037;DHT22;1528;52.550;13.408;2023-03-05T14:11:54;6.70;18.20
3037;DHT22;1528;52.550;13.408;2023-03-05T14:14:42;6.90;18.10
3037;DHT22;1528;52.550;13.408;2023-03-05T14:17:36;7.00;16.90
3037;DHT22;1528;52.550;13.408;2023-03-05T14:20:27;7.00;16.50
3037;DHT22;1528;52.550;13.408;2023-03-05T14:23:33;7.00;17.00
3037;DHT22;1528;52.550;13.408;2023-03-05T14:26:26;7.00;16.70
3037;DHT22;1528;52.550;13.408;2023-03-05T14:29:14;7.10;14.80
3037;DHT22;1528;52.550;13.408;2023-03-05T14:32:04;7.00;14.90
3037;DHT22;1528;52.550;13.408;2023-03-05T14:34:53;6.90;15.70
3037;DHT22;1528;52.550;13.408;2023-03-05T14:37:40;6.90;15.70
3037;DHT22;1528;52.550;13.408;2023-03-05T14:40:31;7.00;15.90
3037;DHT22;1528;52.550;13.408;2023-03-05T14:43:16;6.80;16.80
3037;DHT22;1528;52.550;13.408;2023-03-05T14:46:03;6.70;17.40
3037;DHT22;1528;52.550;13.408;2023-03-05T14:48:49;6.50;17.80
3037;DHT22;1528;52.550;13.408;2023-03-05T14:51:38;6.20;18.60
3037;DHT22;1528;52.550;13.408;2023-03-05T14:54:24;6.10;19.00
3037;DHT22;1528;52.550;13.408;2023-03-05T14:57:15;6.10;19.20
3037;DHT22;1528;52.550;13.408;2023-03-05T15:00:01;6.30;19.30
3037;DHT22;1528;52.550;13.408;2023-03-05T15:02:48;6.10;19.40
3037;DHT22;1528;52.550;13.408;2023-03-05T15:05:36;6.00;19.70
3037;DHT22;1528;52.550;13.408;2023-03-05T15:08:24;6.00;18.70
3037;DHT22;1528;52.550;13.408;2023-03-05T15:11:10;6.00;19.20
3037;DHT22;1528;52.550;13.408;2023-03-05T15:13:57;6.20;19.10
3037;DHT22;1528;52.550;13.408;2023-03-05T15:16:45;6.20;19.10
3037;DHT22;1528;52.550;13.408;2023-03-05T15:19:31;6.00;19.70
3037;DHT22;1528;52.550;13.408;2023-03-05T15:22:17;6.00;20.20
3037;DHT22;1528;52.550;13.408;2023-03-05T15:25:03;5.80;20.30
3037;DHT22;1528;52.550;13.408;2023-03-05T15:27:50;5.70;20.80
3037;DHT22;1528;52.550;13.408;2023-03-05T15:30:40;5.80;21.00
3037;DHT22;1528;52.550;13.408;2023-03-05T15:33:26;5.60;21.60
3037;DHT22;1528;52.550;13.408;2023-03-05T15:36:12;5.70;21.70
3037;DHT22;1528;52.550;13.408;2023-03-05T15:38:57;5.60;21.80
3037;DHT22;1528;52.550;13.408;2023-03-05T15:41:43;5.70;21.30
3037;DHT22;1528;52.550;13.408;2023-03-05T15:44:29;5.70;21.40
3037;DHT22;1528;52.550;13.408;2023-03-05T15:47:15;5.60;22.20
3037;DHT22;1528;52.550;13.408;2023-03-05T15:50:03;5.70;21.60
3037;DHT22;1528;52.550;13.408;2023-03-05T15:52:49;5.60;21.60
3037;DHT22;1528;52.550;13.408;2023-03-05T15:55:38;5.60;21.70
3037;DHT22;1528;52.550;13.408;2023-03-05T15:58:24;5.60;22.00
3037;DHT22;1528;52.550;13.408;2023-03-05T16:01:10;5.70;21.80
3037;DHT22;1528;52.550;13.408;2023-03-05T16:03:57;5.70;22.00
3037;DHT22;1528;52.550;13.408;2023-03-05T16:06:46;5.70;22.30
3037;DHT22;1528;52.550;13.408;2023-03-05T16:09:35;5.80;21.70
3037;DHT22;1528;52.550;13.408;2023-03-05T16:12:24;5.80;21.80
3037;DHT22;1528;52.550;13.408;2023-03-05T16:15:13;5.70;22.10
3037;DHT22;1528;52.550;13.408;2023-03-05T16:18:01;5.30;23.20
3037;DHT22;1528;52.550;13.408;2023-03-05T16:20:50;5.30;23.60
3037;DHT22;1528;52.550;13.408;2023-03-05T16:23:36;5.20;24.00
3037;DHT22;1528;52.550;13.408;2023-03-05T16:26:21;5.30;24.10
3037;DHT22;1528;52.550;13.408;2023-03-05T16:29:07;5.30;24.20
3037;DHT22;1528;52.550;13.408;2023-03-05T16:31:53;5.70;24.10
3037;DHT22;1528;52.550;13.408;2023-03-05T16:34:38;5.40;24.60
3037;DHT22;1528;52.550;13.408;2023-03-05T16:37:25;5.20;24.30
3037;DHT22;1528;52.550;13.408;2023-03-05T16:40:12;5.10;24.70
3037;DHT22;1528;52.550;13.408;2023-03-05T16:42:57;4.90;25.10
3037;DHT22;1528;52.550;13.408;2023-03-05T16:45:43;5.10;25.00
3037;DHT22;1528;52.550;13.408;2023-03-05T16:48:29;5.00;25.20
3037;DHT22;1528;52.550;13.408;2023-03-05T16:51:14;5.10;25.00
3037;DHT22;1528;52.550;13.408;2023-03-05T16:54:02;5.00;25.00
3037;DHT22;1528;52.550;13.408;2023-03-05T16:56:48;5.00;25.60
3037;DHT22;1528;52.550;13.408;2023-03-05T16:59:34;5.00;25.10
3037;DHT22;1528;52.550;13.408;2023-03-05T17:02:20;5.00;25.60
3037;DHT22;1528;52.550;13.408;2023-03-05T17:05:05;5.10;25.00
3037;DHT22;1528;52.550;13.408;2023-03-05T17:07:51;5.20;24.80
3037;DHT22;1528;52.550;13.408;2023-03-05T17:10:38;5.10;25.00
3037;DHT22;1528;52.550;13.408;2023-03-05T17:13:24;5.00;25.30
3037;DHT22;1528;52.550;13.408;2023-03-05T17:16:12;5.00;25.50
3037;DHT22;1528;52.550;13.408;2023-03-05T17:18:58;4.90;26.00
3037;DHT22;1528;52.550;13.408;2023-03-05T17:21:44;4.70;26.60
3037;DHT22;1528;52.550;13.408;2023-03-05T17:24:33;4.80;27.20
3037;DHT22;1528;52.550;13.408;2023-03-05T17:27:21;4.70;26.90
3037;DHT22;1528;52.550;13.408;2023-03-05T17:30:07;4.90;27.20
3037;DHT22;1528;52.550;13.408;2023-03-05T17:32:53;4.80;27.30
3037;DHT22;1528;52.550;13.408;2023-03-05T17:35:41;4.80;27.30
3037;DHT22;1528;52.550;13.408;2023-03-05T17:38:30;4.90;27.40
3037;DHT22;1528;52.550;13.408;2023-03-05T17:41:16;4.80;27.50
3037;DHT22;1528;52.550;13.408;2023-03-05T17:44:04;4.80;27.50
3037;DHT22;1528;52.550;13.408;2023-03-05T17:46:49;4.70;27.40
3037;DHT22;1528;52.550;13.408;2023-03-05T17:49:35;4.50;27.60
3037;DHT22;1528;52.550;13.408;2023-03-05T17:52:21;4.60;27.30
3037;DHT22;1528;52.550;13.408;2023-03-05T17:55:08;4.40;27.50
3037;DHT22;1528;52.550;13.408;2023-03-05T17:57:54;4.50;27.20
3037;DHT22;1528;52.550;13.408;2023-03-05T18:00:42;4.50;27.50
3037;DHT22;1528;52.550;13.408;2023-03-05T18:03:28;4.50;27.40
3037;DHT22;1528;52.550;13.408;2023-03-05T18:06:13;4.70;27.50
3037;DHT22;1528;52.550;13.408;2023-03-05T18:08:59;4.30;27.70
3037;DHT22;1528;52.550;13.408;2023-03-05T18:11:45;4.20;27.80
3037;DHT22;1528;52.550;13.408;2023-03-05T18:14:30;4.20;27.90
3037;DHT22;1528;52.550;13.408;2023-03-05T18:17:17;4.30;27.90
3037;DHT22;1528;52.550;13.408;2023-03-05T18:20:03;4.20;28.00
3037;DHT22;1528;52.550;13.408;2023-03-05T18:22:49;4.30;28.10
3037;DHT22;1528;52.550;13.408;2023-03-05T18:25:35;4.50;27.70
3037;DHT22;1528;52.550;13.408;2023-03-05T18:28:21;4.50;27.70